createdAt,value
2023-02-27T00:00:24.865Z,61.89
2023-02-27T00:02:52.618Z,61.41
2023-02-27T00:05:20.293Z,62.40
2023-02-27T00:07:46.700Z,61.69
2023-02-27T00:10:13.933Z,61.90
2023-02-27T00:12:40.682Z,61.89
2023-02-27T00:15:15.799Z,62.65
2023-02-27T00:17:43.040Z,62.28
2023-02-27T00:20:12.539Z,62.13
2023-02-27T00:22:40.055Z,62.59
2023-02-27T00:25:07.777Z,61.69
2023-02-27T00:27:34.661Z,62.62
2023-02-27T00:30:01.854Z,63.30
2023-02-27T00:32:29.349Z,61.72
2023-02-27T00:34:55.882Z,62.92
2023-02-27T00:37:22.364Z,62.42
2023-02-27T00:39:48.872Z,62.21
2023-02-27T00:42:15.313Z,62.93
2023-02-27T00:44:41.868Z,62.27
2023-02-27T00:47:08.347Z,62.60
2023-02-27T00:49:34.855Z,62.97
2023-02-27T00:52:01.397Z,62.07
2023-02-27T00:54:27.909Z,62.46
2023-02-27T00:56:54.361Z,62.04
2023-02-27T00:59:21.727Z,62.78
2023-02-27T01:01:48.299Z,62.66
2023-02-27T01:04:15.074Z,63.01
2023-02-27T01:06:41.997Z,62.98
2023-02-27T01:09:08.467Z,62.85
2023-02-27T01:11:34.982Z,62.69
2023-02-27T01:14:02.079Z,63.38
2023-02-27T01:16:29.145Z,62.87
2023-02-27T01:18:55.596Z,63.42
2023-02-27T01:21:22.208Z,63.08
2023-02-27T01:23:48.908Z,62.76
2023-02-27T01:26:15.440Z,63.18
2023-02-27T01:28:41.941Z,62.89
2023-02-27T01:31:09.303Z,63.34
2023-02-27T01:33:35.744Z,63.50
2023-02-27T01:36:02.285Z,63.69
2023-02-27T01:38:28.772Z,63.65
2023-02-27T01:40:56.051Z,63.23
2023-02-27T01:43:24.184Z,63.49
2023-02-27T01:45:50.693Z,63.57
2023-02-27T01:48:17.192Z,63.58
2023-02-27T01:50:49.884Z,63.71
2023-02-27T01:53:18.288Z,64.53
2023-02-27T01:55:46.060Z,63.77
2023-02-27T01:58:13.698Z,64.04
2023-02-27T02:00:40.222Z,64.25
2023-02-27T02:03:15.277Z,63.99
2023-02-27T02:05:42.585Z,63.90
2023-02-27T02:08:09.474Z,64.16
2023-02-27T02:10:36.371Z,64.57
2023-02-27T02:13:02.892Z,64.03
2023-02-27T02:15:34.989Z,63.99
2023-02-27T02:18:31.966Z,64.33
2023-02-27T02:21:20.194Z,64.16
2023-02-27T02:24:14.218Z,64.66
2023-02-27T02:26:59.471Z,64.24
2023-02-27T02:29:32.565Z,64.97
2023-02-27T02:32:40.531Z,65.50
2023-02-27T02:35:45.933Z,64.89
2023-02-27T02:38:38.665Z,65.13
2023-02-27T02:41:14.476Z,64.42
2023-02-27T02:43:44.680Z,64.71
2023-02-27T02:46:17.267Z,64.62
2023-02-27T02:48:53.190Z,64.63
2023-02-27T02:51:35.979Z,64.54
2023-02-27T02:54:07.280Z,64.49
2023-02-27T02:56:41.595Z,64.72
2023-02-27T02:59:15.798Z,64.53
2023-02-27T03:01:46.877Z,64.55
2023-02-27T03:04:27.845Z,65.06
2023-02-27T03:07:06.521Z,65.19
2023-02-27T03:09:45.456Z,65.34
2023-02-27T03:12:19.141Z,65.05
2023-02-27T03:14:50.894Z,65.04
2023-02-27T03:17:30.285Z,64.91
2023-02-27T03:20:03.777Z,64.90
2023-02-27T03:22:32.813Z,65.47
2023-02-27T03:25:00.887Z,65.76
2023-02-27T03:27:31.471Z,65.52
2023-02-27T03:30:03.423Z,65.85
2023-02-27T03:32:42.559Z,65.69
2023-02-27T03:35:10.434Z,65.79
2023-02-27T03:37:53.481Z,66.13
2023-02-27T03:40:26.048Z,66.34
2023-02-27T03:43:01.708Z,65.45
2023-02-27T03:45:37.508Z,65.43
2023-02-27T03:48:04.501Z,65.87
2023-02-27T03:50:31.010Z,65.56
2023-02-27T03:52:57.636Z,66.07
2023-02-27T03:55:32.664Z,65.97
2023-02-27T03:57:59.216Z,66.30
2023-02-27T04:00:26.171Z,66.21
2023-02-27T04:02:54.998Z,65.62
2023-02-27T04:05:22.210Z,65.53
2023-02-27T04:07:57.784Z,65.66
2023-02-27T04:11:01.808Z,66.19
2023-02-27T04:13:32.152Z,65.87
2023-02-27T04:16:23.828Z,66.29
2023-02-27T04:19:04.224Z,65.99
2023-02-27T04:21:38.929Z,65.92
2023-02-27T04:24:08.290Z,66.65
2023-02-27T04:26:48.961Z,66.02
2023-02-27T04:29:27.753Z,66.04
2023-02-27T04:32:07.347Z,66.27
2023-02-27T04:34:42.357Z,65.54
2023-02-27T04:37:12.914Z,65.98
2023-02-27T04:39:51.569Z,65.55
2023-02-27T04:42:22.109Z,66.53
2023-02-27T04:44:50.402Z,66.24
2023-02-27T04:47:18.335Z,66.01
2023-02-27T04:49:52.015Z,66.07
2023-02-27T04:52:24.243Z,65.63
2023-02-27T04:54:58.094Z,66.06
2023-02-27T04:57:41.206Z,65.43
2023-02-27T05:00:11.634Z,65.22
2023-02-27T05:02:42.906Z,65.62
2023-02-27T05:05:13.959Z,65.60
2023-02-27T05:07:45.862Z,65.54
2023-02-27T05:10:17.368Z,65.63
2023-02-27T05:13:00.099Z,65.80
2023-02-27T05:15:52.620Z,65.91
2023-02-27T05:18:20.654Z,65.41
2023-02-27T05:20:56.918Z,64.41
2023-02-27T05:23:44.649Z,66.14
2023-02-27T05:26:45.358Z,65.21
2023-02-27T05:29:26.674Z,65.36
2023-02-27T05:32:02.159Z,65.35
2023-02-27T05:34:54.409Z,65.63
2023-02-27T05:37:28.195Z,65.56
2023-02-27T05:39:54.661Z,65.83
2023-02-27T05:42:28.611Z,65.72
2023-02-27T05:44:59.112Z,65.99
2023-02-27T05:47:27.752Z,66.03
2023-02-27T05:49:58.894Z,65.62
2023-02-27T05:52:26.751Z,65.66
2023-02-27T05:55:04.769Z,65.42
2023-02-27T05:58:17.566Z,65.62
2023-02-27T06:00:47.665Z,66.18
2023-02-27T06:03:14.368Z,66.01
2023-02-27T06:05:42.465Z,65.80
2023-02-27T06:08:09.108Z,65.84
2023-02-27T06:10:35.678Z,66.12
2023-02-27T06:13:02.242Z,65.81
2023-02-27T06:15:28.804Z,66.03
2023-02-27T06:17:56.378Z,66.12
2023-02-27T06:20:22.915Z,65.75
2023-02-27T06:22:49.452Z,65.90
2023-02-27T06:25:15.908Z,65.68
2023-02-27T06:27:42.602Z,65.51
2023-02-27T06:30:09.676Z,66.26
2023-02-27T06:32:36.214Z,66.81
2023-02-27T06:35:02.778Z,66.00
2023-02-27T06:37:29.290Z,66.62
2023-02-27T06:39:55.747Z,66.59
2023-02-27T06:42:22.255Z,67.07
2023-02-27T06:44:49.080Z,66.07
2023-02-27T06:47:15.544Z,66.59
2023-02-27T06:49:42.000Z,66.62
2023-02-27T06:52:08.438Z,66.34
2023-02-27T06:54:34.957Z,66.88
2023-02-27T06:57:01.487Z,66.94
2023-02-27T06:59:27.979Z,67.02
2023-02-27T07:01:54.576Z,67.11
2023-02-27T07:04:21.129Z,66.61
2023-02-27T07:07:33.977Z,66.70
2023-02-27T07:09:35.951Z,66.29
2023-02-27T07:12:03.626Z,66.24
2023-02-27T07:14:30.052Z,65.99
2023-02-27T07:16:56.755Z,66.15
2023-02-27T07:19:24.104Z,65.83
2023-02-27T07:21:50.935Z,65.56
2023-02-27T07:24:17.566Z,65.89
2023-02-27T07:26:44.035Z,65.63
2023-02-27T07:29:10.555Z,65.34
2023-02-27T07:31:37.242Z,65.18
2023-02-27T07:34:03.818Z,65.19
2023-02-27T07:36:31.648Z,65.10
2023-02-27T07:38:58.692Z,64.65
2023-02-27T07:41:30.668Z,63.88
2023-02-27T07:44:03.850Z,63.95
2023-02-27T07:46:31.140Z,63.65
2023-02-27T07:48:57.769Z,63.80
2023-02-27T07:51:24.243Z,62.49
2023-02-27T07:53:50.771Z,62.60
2023-02-27T07:56:17.294Z,62.14
2023-02-27T07:58:43.741Z,61.17
2023-02-27T08:01:10.262Z,61.63
2023-02-27T08:03:36.689Z,61.56
2023-02-27T08:06:03.337Z,61.02
2023-02-27T08:08:29.946Z,61.42
2023-02-27T08:10:56.387Z,61.19
2023-02-27T08:13:42.243Z,60.37
2023-02-27T08:16:09.255Z,60.69
2023-02-27T08:18:35.744Z,60.18
2023-02-27T08:21:04.832Z,60.20
2023-02-27T08:23:32.551Z,60.32
2023-02-27T08:25:59.024Z,59.43
2023-02-27T08:28:25.526Z,59.51
2023-02-27T08:30:52.041Z,59.62
2023-02-27T08:33:18.539Z,58.92
2023-02-27T08:35:45.085Z,59.21
2023-02-27T08:38:11.606Z,58.31
2023-02-27T08:40:38.128Z,58.41
2023-02-27T08:43:04.547Z,59.14
2023-02-27T08:45:31.120Z,58.05
2023-02-27T08:47:57.604Z,56.76
2023-02-27T08:50:24.102Z,56.88
2023-02-27T08:52:50.631Z,56.67
2023-02-27T08:55:17.195Z,56.54
2023-02-27T08:57:43.701Z,56.66
2023-02-27T09:00:10.814Z,56.46
2023-02-27T09:02:37.302Z,56.23
2023-02-27T09:05:03.975Z,55.71
2023-02-27T09:07:30.433Z,56.18
2023-02-27T09:09:57.013Z,56.60
2023-02-27T09:12:23.526Z,56.08
2023-02-27T09:14:50.032Z,55.87
2023-02-27T09:17:16.578Z,56.07
2023-02-27T09:19:43.072Z,55.25
2023-02-27T09:22:09.502Z,56.00
2023-02-27T09:24:37.183Z,57.08
2023-02-27T09:27:04.464Z,55.35
2023-02-27T09:29:30.969Z,54.77
2023-02-27T09:31:57.478Z,54.93
2023-02-27T09:34:24.036Z,55.54
2023-02-27T09:36:50.819Z,54.89
2023-02-27T09:39:17.306Z,55.65
2023-02-27T09:41:55.553Z,54.77
2023-02-27T09:44:46.086Z,54.86
2023-02-27T09:47:21.360Z,54.99
2023-02-27T09:50:01.294Z,54.01
2023-02-27T09:52:29.769Z,55.32
2023-02-27T09:54:56.627Z,54.60
2023-02-27T09:57:50.137Z,53.27
2023-02-27T10:00:45.767Z,54.74
2023-02-27T10:03:29.880Z,55.16
2023-02-27T10:06:23.297Z,54.25
2023-02-27T10:09:13.425Z,53.88
2023-02-27T10:12:05.776Z,53.14
2023-02-27T10:14:33.372Z,52.81
2023-02-27T10:17:03.257Z,51.62
2023-02-27T10:19:32.737Z,52.99
2023-02-27T10:22:00.039Z,52.17
2023-02-27T10:24:29.519Z,52.39
2023-02-27T10:26:57.748Z,52.03
2023-02-27T10:29:30.380Z,51.10
2023-02-27T10:32:13.583Z,51.47
2023-02-27T10:34:42.163Z,50.46
2023-02-27T10:37:13.393Z,50.95
2023-02-27T10:39:52.611Z,51.09
2023-02-27T10:42:19.164Z,51.36
2023-02-27T10:44:46.206Z,50.91
2023-02-27T10:47:16.130Z,51.62
2023-02-27T10:49:43.483Z,51.45
2023-02-27T10:52:15.275Z,50.80
2023-02-27T10:54:42.599Z,51.43
2023-02-27T10:57:28.830Z,51.32
2023-02-27T10:59:58.796Z,51.14
2023-02-27T11:02:37.198Z,50.34
2023-02-27T11:05:04.921Z,50.36
2023-02-27T11:07:38.560Z,49.77
2023-02-27T11:10:12.278Z,49.33
2023-02-27T11:12:40.341Z,50.02
2023-02-27T11:15:15.966Z,50.04
2023-02-27T11:17:43.248Z,48.34
2023-02-27T11:20:36.118Z,48.75
2023-02-27T11:23:10.496Z,48.52
2023-02-27T11:25:36.977Z,48.85
2023-02-27T11:28:24.330Z,48.21
2023-02-27T11:31:03.358Z,48.73
2023-02-27T11:33:36.031Z,49.10
2023-02-27T11:36:03.202Z,47.96
2023-02-27T11:38:30.961Z,48.66
2023-02-27T11:41:00.028Z,46.77
2023-02-27T11:43:47.924Z,46.69
2023-02-27T11:46:46.400Z,47.64
2023-02-27T11:49:16.610Z,47.98
2023-02-27T11:51:49.369Z,48.53
2023-02-27T11:54:15.867Z,48.22
2023-02-27T11:56:46.878Z,48.15
2023-02-27T11:59:17.594Z,48.03
2023-02-27T12:01:49.500Z,48.91
2023-02-27T12:04:18.960Z,46.77
2023-02-27T12:06:51.071Z,47.83
2023-02-27T12:09:53.010Z,48.66
2023-02-27T12:12:49.360Z,48.58
2023-02-27T12:15:34.373Z,48.12
2023-02-27T12:18:15.932Z,48.21
2023-02-27T12:20:55.371Z,49.13
2023-02-27T12:23:50.347Z,48.99
2023-02-27T12:26:23.006Z,49.24
2023-02-27T12:29:14.250Z,49.55
2023-02-27T12:31:51.393Z,49.67
2023-02-27T12:34:29.480Z,49.74
2023-02-27T12:37:26.318Z,48.84
2023-02-27T12:39:58.347Z,48.60
2023-02-27T12:42:36.977Z,48.57
2023-02-27T12:45:29.569Z,47.21
2023-02-27T12:48:21.015Z,47.43
2023-02-27T12:51:25.588Z,48.69
2023-02-27T12:53:58.150Z,47.14
2023-02-27T12:56:39.030Z,46.61
2023-02-27T12:59:26.938Z,46.63
2023-02-27T13:02:09.532Z,47.20
2023-02-27T13:04:46.077Z,46.27
2023-02-27T13:07:37.412Z,45.62
2023-02-27T13:10:14.238Z,45.66
2023-02-27T13:12:45.963Z,45.98
2023-02-27T13:15:32.701Z,44.85
2023-02-27T13:18:28.642Z,44.89
2023-02-27T13:21:24.536Z,45.83
2023-02-27T13:24:09.710Z,46.79
2023-02-27T13:26:39.938Z,46.72
2023-02-27T13:29:07.806Z,47.18
2023-02-27T13:31:57.650Z,46.49
2023-02-27T13:34:33.980Z,47.34
2023-02-27T13:37:08.813Z,48.05
2023-02-27T13:39:45.816Z,47.21
2023-02-27T13:42:27.560Z,47.18
2023-02-27T13:45:02.369Z,47.17
2023-02-27T13:47:40.454Z,48.14
2023-02-27T13:50:21.109Z,48.65
2023-02-27T13:52:47.851Z,47.42
2023-02-27T13:55:35.231Z,48.28
2023-02-27T13:58:04.745Z,47.07
2023-02-27T14:00:33.268Z,46.92
2023-02-27T14:03:09.354Z,47.35
2023-02-27T14:05:42.334Z,47.82
2023-02-27T14:08:11.851Z,48.12
2023-02-27T14:10:40.768Z,47.68
2023-02-27T14:13:45.089Z,47.62
2023-02-27T14:16:32.434Z,47.78
2023-02-27T14:19:00.115Z,48.58
2023-02-27T14:21:51.378Z,48.65
2023-02-27T14:24:25.261Z,46.84
2023-02-27T14:26:53.155Z,47.89
2023-02-27T14:29:21.587Z,47.88
2023-02-27T14:31:48.489Z,48.54
2023-02-27T14:34:16.453Z,48.18
2023-02-27T14:36:45.625Z,49.44
2023-02-27T14:39:26.279Z,49.10
2023-02-27T14:42:19.527Z,49.16
2023-02-27T14:44:48.134Z,49.76
2023-02-27T14:47:19.231Z,49.87
2023-02-27T14:49:47.289Z,49.81
2023-02-27T14:52:25.393Z,50.08
2023-02-27T14:54:53.320Z,49.51
2023-02-27T14:57:23.718Z,49.20
2023-02-27T14:59:53.333Z,49.88
2023-02-27T15:02:22.790Z,49.35
2023-02-27T15:05:01.580Z,49.56
2023-02-27T15:07:33.294Z,49.28
2023-02-27T15:10:04.392Z,49.65
2023-02-27T15:12:33.203Z,50.29
2023-02-27T15:15:01.478Z,50.16
2023-02-27T15:17:37.626Z,50.32
2023-02-27T15:20:27.520Z,50.98
2023-02-27T15:22:54.069Z,50.04
2023-02-27T15:25:33.088Z,50.38
2023-02-27T15:28:08.523Z,49.63
2023-02-27T15:30:35.028Z,49.77
2023-02-27T15:33:02.817Z,49.88
2023-02-27T15:35:36.424Z,49.88
2023-02-27T15:38:03.606Z,49.84
2023-02-27T15:40:32.319Z,49.80
2023-02-27T15:43:00.175Z,50.58
2023-02-27T15:45:32.699Z,50.86
2023-02-27T15:47:59.316Z,51.33
2023-02-27T15:50:33.754Z,50.84
2023-02-27T15:53:04.187Z,50.91
2023-02-27T15:55:36.932Z,50.20
2023-02-27T15:58:03.974Z,50.42
2023-02-27T16:00:31.437Z,50.76
2023-02-27T16:02:58.794Z,51.28
2023-02-27T16:05:29.579Z,50.52
2023-02-27T16:07:56.919Z,51.59
2023-02-27T16:10:45.210Z,51.27
2023-02-27T16:13:26.626Z,51.49
2023-02-27T16:16:00.798Z,51.55
2023-02-27T16:18:38.589Z,51.57
2023-02-27T16:21:14.620Z,52.05
2023-02-27T16:23:41.676Z,52.19
2023-02-27T16:26:33.035Z,52.26
2023-02-27T16:29:33.948Z,51.37
2023-02-27T16:32:00.885Z,52.51
2023-02-27T16:34:44.997Z,51.70
2023-02-27T16:37:36.354Z,52.70
2023-02-27T16:40:25.376Z,51.44
2023-02-27T16:42:52.757Z,51.82
2023-02-27T16:45:24.499Z,52.50
2023-02-27T16:47:53.190Z,52.01
2023-02-27T16:50:34.532Z,52.51
2023-02-27T16:53:01.171Z,52.79
2023-02-27T16:55:27.995Z,52.29
2023-02-27T16:57:54.589Z,52.27
2023-02-27T17:00:22.616Z,52.45
2023-02-27T17:02:49.214Z,52.58
2023-02-27T17:05:16.165Z,52.48
2023-02-27T17:07:43.394Z,52.19
2023-02-27T17:10:15.407Z,52.24
2023-02-27T17:12:44.003Z,52.95
2023-02-27T17:15:10.684Z,51.72
2023-02-27T17:17:37.152Z,52.12
2023-02-27T17:20:07.196Z,52.17
2023-02-27T17:22:37.722Z,53.37
2023-02-27T17:25:04.367Z,52.64
2023-02-27T17:27:30.938Z,53.07
2023-02-27T17:29:57.686Z,53.71
2023-02-27T17:32:24.202Z,53.26
2023-02-27T17:34:55.301Z,53.83
2023-02-27T17:37:22.438Z,53.59
2023-02-27T17:39:49.024Z,53.55
2023-02-27T17:42:18.476Z,53.80
2023-02-27T17:44:46.379Z,54.91
2023-02-27T17:47:13.196Z,53.95
2023-02-27T17:49:39.684Z,53.77
2023-02-27T17:52:07.236Z,54.62
2023-02-27T17:54:34.727Z,54.07
2023-02-27T17:57:01.782Z,54.51
2023-02-27T17:59:28.204Z,54.51
2023-02-27T18:01:55.631Z,54.49
2023-02-27T18:04:22.274Z,54.77
2023-02-27T18:06:50.514Z,54.52
2023-02-27T18:09:17.312Z,55.43
2023-02-27T18:11:43.842Z,55.05
2023-02-27T18:14:10.332Z,56.17
2023-02-27T18:16:36.841Z,55.96
2023-02-27T18:19:06.578Z,55.55
2023-02-27T18:21:33.809Z,55.95
2023-02-27T18:24:00.503Z,56.43
2023-02-27T18:26:31.167Z,55.68
2023-02-27T18:29:03.210Z,55.60
2023-02-27T18:31:32.647Z,56.18
2023-02-27T18:33:59.939Z,54.70
2023-02-27T18:36:27.670Z,55.31
2023-02-27T18:38:54.373Z,55.17
2023-02-27T18:41:20.853Z,55.20
2023-02-27T18:43:47.308Z,55.63
2023-02-27T18:46:14.793Z,55.32
2023-02-27T18:48:43.391Z,55.67
2023-02-27T18:51:12.460Z,55.35
2023-02-27T18:53:40.424Z,54.68
2023-02-27T18:56:08.877Z,55.71
2023-02-27T18:58:35.771Z,55.02
2023-02-27T19:01:08.668Z,56.22
2023-02-27T19:03:35.987Z,56.28
2023-02-27T19:06:02.599Z,55.11
2023-02-27T19:08:29.186Z,55.96
2023-02-27T19:10:57.041Z,56.13
2023-02-27T19:13:23.843Z,55.71
2023-02-27T19:15:50.461Z,56.30
2023-02-27T19:18:16.989Z,55.36
2023-02-27T19:20:43.422Z,57.08
2023-02-27T19:23:09.919Z,56.06
2023-02-27T19:25:36.489Z,55.67
2023-02-27T19:28:06.354Z,55.94
2023-02-27T19:30:32.840Z,56.56
2023-02-27T19:32:59.386Z,55.63
2023-02-27T19:35:25.894Z,55.86
2023-02-27T19:37:56.945Z,55.25
2023-02-27T19:40:26.519Z,55.18
2023-02-27T19:42:53.031Z,55.69
2023-02-27T19:45:19.573Z,55.29
2023-02-27T19:47:46.717Z,55.58
2023-02-27T19:50:13.324Z,56.80
2023-02-27T19:52:40.287Z,56.03
2023-02-27T19:55:07.125Z,55.67
2023-02-27T19:57:34.863Z,56.44
2023-02-27T20:00:01.339Z,56.17
2023-02-27T20:02:27.915Z,55.86
2023-02-27T20:04:54.626Z,55.63
2023-02-27T20:07:21.160Z,56.57
2023-02-27T20:09:47.590Z,56.20
2023-02-27T20:12:14.121Z,56.79
2023-02-27T20:14:40.992Z,56.09
2023-02-27T20:17:08.043Z,55.96
2023-02-27T20:19:36.378Z,56.16
2023-02-27T20:22:02.890Z,55.93
2023-02-27T20:24:29.417Z,56.05
2023-02-27T20:26:58.969Z,55.73
2023-02-27T20:29:26.773Z,56.32
2023-02-27T20:31:55.338Z,57.19
2023-02-27T20:34:25.511Z,55.98
2023-02-27T20:36:55.935Z,56.62
2023-02-27T20:39:22.434Z,57.38
2023-02-27T20:41:48.955Z,56.00
2023-02-27T20:44:17.930Z,56.81
2023-02-27T20:46:44.800Z,55.88
2023-02-27T20:49:14.375Z,56.74
2023-02-27T20:51:41.096Z,55.74
2023-02-27T20:54:11.143Z,55.18
2023-02-27T20:56:41.074Z,55.85
2023-02-27T20:59:10.035Z,55.09
2023-02-27T21:01:38.446Z,55.82
2023-02-27T21:04:05.442Z,54.76
2023-02-27T21:06:32.130Z,54.88
2023-02-27T21:09:01.207Z,54.26
2023-02-27T21:11:30.268Z,53.92
2023-02-27T21:13:58.401Z,54.11
2023-02-27T21:16:25.759Z,54.68
2023-02-27T21:18:53.993Z,54.32
2023-02-27T21:21:23.519Z,53.59
2023-02-27T21:23:51.869Z,54.28
2023-02-27T21:26:24.291Z,54.86
2023-02-27T21:29:02.366Z,54.29
2023-02-27T21:31:32.257Z,54.41
2023-02-27T21:34:00.993Z,54.58
2023-02-27T21:36:30.775Z,54.81
2023-02-27T21:38:59.037Z,54.02
2023-02-27T21:41:25.788Z,54.07
2023-02-27T21:43:52.332Z,53.90
2023-02-27T21:46:20.747Z,54.82
2023-02-27T21:48:47.410Z,55.23
2023-02-27T21:51:13.912Z,55.26
2023-02-27T21:53:40.424Z,55.51
2023-02-27T21:56:09.237Z,54.76
2023-02-27T21:58:36.630Z,55.12
2023-02-27T22:01:03.501Z,55.45
2023-02-27T22:03:34.263Z,55.94
2023-02-27T22:06:01.954Z,55.64
2023-02-27T22:08:31.381Z,56.67
2023-02-27T22:10:59.111Z,56.07
2023-02-27T22:13:25.920Z,56.74
2023-02-27T22:15:53.002Z,56.58
2023-02-27T22:18:19.599Z,57.11
2023-02-27T22:20:49.332Z,57.62
2023-02-27T22:23:15.829Z,57.62
2023-02-27T22:25:42.389Z,57.07
2023-02-27T22:28:08.915Z,57.25
2023-02-27T22:30:35.447Z,57.68
2023-02-27T22:33:01.997Z,57.51
2023-02-27T22:35:28.547Z,57.17
2023-02-27T22:37:55.121Z,58.56
2023-02-27T22:40:21.592Z,57.68
2023-02-27T22:42:48.102Z,58.42
2023-02-27T22:45:15.198Z,57.98
2023-02-27T22:47:41.694Z,59.18
2023-02-27T22:50:08.828Z,59.18
2023-02-27T22:52:36.397Z,59.12
2023-02-27T22:55:03.500Z,59.97
2023-02-27T22:57:32.718Z,60.21
2023-02-27T22:59:59.165Z,59.17
2023-02-27T23:02:25.702Z,59.09
2023-02-27T23:04:52.121Z,60.01
2023-02-27T23:07:18.614Z,60.32
2023-02-27T23:09:45.034Z,59.84
2023-02-27T23:12:13.554Z,60.74
2023-02-27T23:14:39.997Z,60.01
2023-02-27T23:17:06.476Z,59.97
2023-02-27T23:19:33.111Z,60.84
2023-02-27T23:21:59.597Z,60.44
2023-02-27T23:24:26.092Z,61.00
2023-02-27T23:26:53.082Z,60.49
2023-02-27T23:29:19.854Z,60.68
2023-02-27T23:31:49.163Z,60.54
2023-02-27T23:34:16.454Z,60.21
2023-02-27T23:36:43.156Z,61.10
2023-02-27T23:39:15.288Z,61.76
2023-02-27T23:41:41.775Z,61.85
2023-02-27T23:44:26.766Z,61.23
2023-02-27T23:46:53.224Z,61.52
2023-02-27T23:49:19.782Z,61.50
2023-02-27T23:51:46.326Z,61.86
2023-02-27T23:54:12.779Z,62.36
2023-02-27T23:56:39.313Z,62.56
2023-02-27T23:59:06.973Z,61.85
